createdAt,value
2018-11-12T00:00:15.541Z,43.83
2018-11-12T00:02:45.051Z,47.47
2018-11-12T00:05:13.356Z,45.03
2018-11-12T00:07:41.712Z,46.60
2018-11-12T00:10:10.077Z,47.97
2018-11-12T00:12:38.272Z,45.17
2018-11-12T00:15:07.367Z,46.43
2018-11-12T00:17:35.333Z,46.10
2018-11-12T00:20:03.509Z,50.20
2018-11-12T00:22:31.478Z,48.20
2018-11-12T00:25:01.120Z,46.23
2018-11-12T00:27:29.573Z,46.13
2018-11-12T00:29:57.471Z,48.40
2018-11-12T00:32:25.414Z,48.30
2018-11-12T00:34:53.523Z,48.00
2018-11-12T00:37:21.418Z,46.20
2018-11-12T00:39:49.618Z,48.67
2018-11-12T00:42:17.549Z,46.47
2018-11-12T00:44:45.596Z,50.10
2018-11-12T00:47:13.809Z,47.73
2018-11-12T00:49:42.327Z,49.67
2018-11-12T00:52:10.210Z,50.57
2018-11-12T00:54:38.141Z,48.30
2018-11-12T00:57:06.175Z,48.33
2018-11-12T00:59:34.036Z,48.60
2018-11-12T01:02:02.202Z,48.97
2018-11-12T01:04:30.119Z,55.10
2018-11-12T01:06:58.626Z,55.13
2018-11-12T01:09:26.780Z,50.23
2018-11-12T01:11:55.403Z,53.50
2018-11-12T01:14:23.371Z,51.30
2018-11-12T01:16:51.275Z,56.90
2018-11-12T01:19:19.239Z,53.37
2018-11-12T01:21:47.353Z,51.07
2018-11-12T01:24:15.427Z,54.27
2018-11-12T01:26:43.357Z,52.33
2018-11-12T01:29:11.385Z,51.40
2018-11-12T01:31:39.304Z,54.87
2018-11-12T01:34:07.378Z,53.07
2018-11-12T01:36:35.747Z,60.27
2018-11-12T01:39:05.958Z,53.00
2018-11-12T01:41:33.946Z,51.33
2018-11-12T01:44:01.985Z,55.50
2018-11-12T01:46:29.917Z,59.73
2018-11-12T01:48:57.855Z,53.17
2018-11-12T01:51:25.769Z,54.80
2018-11-12T01:53:54.145Z,57.23
2018-11-12T01:56:22.197Z,58.93
2018-11-12T01:58:50.124Z,62.23
2018-11-12T02:01:18.623Z,61.50
2018-11-12T02:03:47.851Z,55.83
2018-11-12T02:06:16.034Z,57.93
2018-11-12T02:08:44.106Z,57.93
2018-11-12T02:11:12.969Z,58.47
2018-11-12T02:13:42.608Z,58.50
2018-11-12T02:16:11.071Z,65.27
2018-11-12T02:18:39.928Z,60.20
2018-11-12T02:21:08.758Z,61.00
2018-11-12T02:23:37.018Z,57.27
2018-11-12T02:26:05.273Z,65.63
2018-11-12T02:28:33.448Z,62.10
2018-11-12T02:31:01.364Z,66.40
2018-11-12T02:33:29.331Z,60.30
2018-11-12T02:35:57.237Z,77.57
2018-11-12T02:38:25.274Z,65.93
2018-11-12T02:40:53.210Z,63.00
2018-11-12T02:43:21.144Z,61.47
2018-11-12T02:45:49.051Z,67.30
2018-11-12T02:48:17.591Z,66.90
2018-11-12T02:50:45.590Z,66.80
2018-11-12T02:53:13.602Z,63.30
2018-11-12T02:55:41.519Z,63.63
2018-11-12T02:58:09.472Z,64.07
2018-11-12T03:00:37.405Z,68.90
2018-11-12T03:03:05.514Z,68.07
2018-11-12T03:05:33.930Z,65.60
2018-11-12T03:08:02.445Z,68.90
2018-11-12T03:10:30.396Z,70.70
2018-11-12T03:12:58.863Z,67.63
2018-11-12T03:15:26.766Z,74.60
2018-11-12T03:17:55.322Z,72.17
2018-11-12T03:20:23.659Z,75.80
2018-11-12T03:22:51.871Z,74.27
2018-11-12T03:25:21.472Z,80.17
2018-11-12T03:27:50.333Z,68.17
2018-11-12T03:30:19.645Z,69.90
2018-11-12T03:32:48.319Z,71.70
2018-11-12T03:35:16.495Z,74.73
2018-11-12T03:37:45.581Z,73.40
2018-11-12T03:40:16.016Z,71.20
2018-11-12T03:42:44.632Z,74.57
2018-11-12T03:45:15.226Z,70.57
2018-11-12T03:47:44.247Z,75.10
2018-11-12T03:50:14.283Z,72.30
2018-11-12T03:52:42.511Z,81.60
2018-11-12T03:55:14.721Z,75.37
2018-11-12T03:57:42.772Z,72.50
2018-11-12T04:00:13.449Z,69.57
2018-11-12T04:02:42.588Z,76.30
2018-11-12T04:05:10.962Z,72.33
2018-11-12T04:07:39.644Z,74.20
2018-11-12T04:10:10.929Z,73.27
2018-11-12T04:12:39.339Z,77.23
2018-11-12T04:15:09.323Z,75.63
2018-11-12T04:17:37.481Z,77.83
2018-11-12T04:20:06.541Z,75.63
2018-11-12T04:22:34.677Z,81.00
2018-11-12T04:25:03.376Z,73.63
2018-11-12T04:27:31.243Z,77.27
2018-11-12T04:29:59.158Z,80.93
2018-11-12T04:32:27.989Z,80.17
2018-11-12T04:34:57.018Z,87.10
2018-11-12T04:37:24.921Z,74.13
2018-11-12T04:39:53.527Z,78.07
2018-11-12T04:42:21.725Z,75.60
2018-11-12T04:44:49.668Z,79.27
2018-11-12T04:47:17.626Z,78.17
2018-11-12T04:49:45.539Z,72.90
2018-11-12T04:52:13.555Z,79.40
2018-11-12T04:54:41.498Z,87.37
2018-11-12T04:57:09.388Z,75.97
2018-11-12T04:59:37.297Z,73.07
2018-11-12T05:02:06.183Z,80.03
2018-11-12T05:04:34.577Z,80.50
2018-11-12T05:07:02.502Z,86.57
2018-11-12T05:09:35.999Z,77.03
2018-11-12T05:12:04.205Z,71.50
2018-11-12T05:14:32.162Z,77.53
2018-11-12T05:17:00.323Z,79.07
2018-11-12T05:19:28.561Z,76.20
2018-11-12T05:21:57.078Z,74.10
2018-11-12T05:24:25.737Z,81.00
2018-11-12T05:26:53.640Z,89.90
2018-11-12T05:29:21.945Z,77.27
2018-11-12T05:31:49.842Z,74.03
2018-11-12T05:34:17.759Z,80.27
2018-11-12T05:36:46.219Z,77.23
2018-11-12T05:39:14.333Z,81.07
2018-11-12T05:41:42.284Z,91.83
2018-11-12T05:44:10.576Z,95.73
2018-11-12T05:46:38.548Z,94.10
2018-11-12T05:49:06.614Z,93.80
2018-11-12T05:51:34.589Z,81.70
2018-11-12T05:54:04.791Z,79.33
2018-11-12T05:56:32.785Z,77.67
2018-11-12T05:59:00.866Z,81.30
2018-11-12T06:01:28.719Z,79.30
2018-11-12T06:03:57.269Z,78.30
2018-11-12T06:06:25.394Z,80.77
2018-11-12T06:08:54.007Z,68.03
2018-11-12T06:11:21.916Z,71.30
2018-11-12T06:13:49.958Z,72.53
2018-11-12T06:16:18.374Z,80.10
2018-11-12T06:18:46.339Z,84.13
2018-11-12T06:21:14.263Z,68.07
2018-11-12T06:23:42.909Z,76.83
2018-11-12T06:26:10.933Z,73.40
2018-11-12T06:28:39.098Z,75.33
2018-11-12T06:31:07.126Z,78.27
2018-11-12T06:33:35.010Z,75.43
2018-11-12T06:36:03.056Z,73.77
2018-11-12T06:38:31.146Z,87.90
2018-11-12T06:40:59.340Z,82.40
2018-11-12T06:43:27.223Z,73.57
2018-11-12T06:45:55.157Z,75.07
2018-11-12T06:48:23.943Z,75.07
2018-11-12T06:50:51.817Z,75.60
2018-11-12T06:53:20.043Z,91.37
2018-11-12T06:55:48.648Z,81.23
2018-11-12T06:58:16.926Z,87.23
2018-11-12T07:00:45.008Z,78.60
2018-11-12T07:03:14.653Z,81.20
2018-11-12T07:05:42.587Z,78.90
2018-11-12T07:08:10.506Z,82.70
2018-11-12T07:10:39.684Z,76.70
2018-11-12T07:13:07.652Z,79.80
2018-11-12T07:15:35.597Z,74.97
2018-11-12T07:18:03.593Z,81.63
2018-11-12T07:20:32.851Z,87.03
2018-11-12T07:23:00.848Z,73.33
2018-11-12T07:25:30.432Z,76.70
2018-11-12T07:27:59.081Z,71.73
2018-11-12T07:30:27.944Z,70.20
2018-11-12T07:32:57.381Z,75.90
2018-11-12T07:35:25.775Z,72.27
2018-11-12T07:37:54.704Z,66.80
2018-11-12T07:40:23.505Z,79.17
2018-11-12T07:42:51.418Z,88.87
2018-11-12T07:45:21.507Z,71.73
2018-11-12T07:47:50.401Z,74.27
2018-11-12T07:50:19.793Z,68.40
2018-11-12T07:52:47.926Z,84.00
2018-11-12T07:55:19.458Z,136.70
2018-11-12T07:57:52.398Z,79.70
2018-11-12T08:00:22.917Z,75.63
2018-11-12T08:02:54.838Z,64.57
2018-11-12T08:05:23.402Z,62.67
2018-11-12T08:07:51.487Z,59.80
2018-11-12T08:10:20.643Z,162.40
2018-11-12T08:12:48.861Z,65.33
2018-11-12T08:15:18.368Z,83.93
2018-11-12T08:17:47.265Z,62.33
2018-11-12T08:20:16.617Z,95.90
2018-11-12T08:22:46.616Z,67.90
2018-11-12T08:25:20.634Z,109.57
2018-11-12T08:27:49.443Z,59.00
2018-11-12T08:30:25.950Z,61.37
2018-11-12T08:32:55.587Z,56.80
2018-11-12T08:35:25.880Z,54.83
2018-11-12T08:37:54.410Z,50.63
2018-11-12T08:40:30.010Z,49.20
2018-11-12T08:42:59.772Z,52.00
2018-11-12T08:45:27.685Z,48.83
2018-11-12T08:47:56.247Z,49.77
2018-11-12T08:50:25.511Z,51.23
2018-11-12T08:52:54.394Z,52.57
2018-11-12T08:55:26.029Z,51.20
2018-11-12T08:57:55.454Z,56.17
2018-11-12T09:00:24.360Z,52.40
2018-11-12T09:02:52.344Z,46.13
2018-11-12T09:05:21.678Z,43.20
2018-11-12T09:07:52.069Z,43.33
2018-11-12T09:10:24.056Z,44.33
2018-11-12T09:12:52.749Z,48.17
2018-11-12T09:15:21.235Z,43.67
2018-11-12T09:17:49.587Z,44.97
2018-11-12T09:20:21.935Z,41.90
2018-11-12T09:22:50.222Z,40.30
2018-11-12T09:25:26.073Z,40.00
2018-11-12T09:27:55.672Z,35.87
2018-11-12T09:30:25.788Z,43.10
2018-11-12T09:32:54.878Z,42.97
2018-11-12T09:35:24.749Z,43.17
2018-11-12T09:37:55.623Z,41.50
2018-11-12T09:40:32.513Z,39.30
2018-11-12T09:43:03.294Z,44.50
2018-11-12T09:45:31.488Z,37.57
2018-11-12T09:47:59.748Z,43.90
2018-11-12T09:50:29.377Z,45.27
2018-11-12T09:53:00.220Z,44.43
2018-11-12T09:55:32.258Z,60.63
2018-11-12T09:58:06.277Z,46.90
2018-11-12T10:00:35.592Z,46.23
2018-11-12T10:03:06.063Z,42.17
2018-11-12T10:05:35.780Z,40.60
2018-11-12T10:08:10.641Z,39.30
2018-11-12T10:13:25.557Z,44.30
2018-11-12T10:15:53.186Z,47.50
2018-11-12T10:18:19.472Z,46.37
2018-11-12T10:20:47.721Z,38.43
2018-11-12T10:23:16.024Z,43.63
2018-11-12T10:25:45.078Z,38.93
2018-11-12T10:28:19.018Z,37.10
2018-11-12T10:30:47.202Z,42.30
2018-11-12T10:33:15.142Z,37.40
2018-11-12T10:35:45.641Z,38.47
2018-11-12T10:38:15.342Z,32.47
2018-11-12T10:43:28.723Z,35.33
2018-11-12T10:45:57.478Z,34.27
2018-11-12T10:48:25.560Z,31.90
2018-11-12T10:51:04.594Z,34.80
2018-11-12T10:53:22.632Z,44.63
2018-11-12T10:55:50.938Z,36.93
2018-11-12T10:58:18.987Z,34.70
2018-11-12T11:00:52.926Z,32.03
2018-11-12T11:03:31.226Z,31.23
2018-11-12T11:05:59.628Z,31.37
2018-11-12T11:08:28.468Z,32.10
2018-11-12T11:10:56.594Z,38.33
2018-11-12T11:13:24.709Z,38.03
2018-11-12T11:15:53.129Z,36.47
2018-11-12T11:18:21.061Z,37.83
2018-11-12T11:20:49.834Z,30.83
2018-11-12T11:23:17.850Z,36.67
2018-11-12T11:25:51.759Z,38.77
2018-11-12T11:28:20.769Z,30.53
2018-11-12T11:30:48.842Z,34.90
2018-11-12T11:33:17.479Z,34.10
2018-11-12T11:35:46.003Z,32.53
2018-11-12T11:38:14.073Z,34.83
2018-11-12T11:40:52.675Z,31.70
2018-11-12T11:43:26.898Z,33.13
2018-11-12T11:45:55.345Z,34.90
2018-11-12T11:48:23.385Z,33.03
2018-11-12T11:50:52.480Z,37.00
2018-11-12T11:53:20.686Z,37.07
2018-11-12T11:56:04.626Z,40.37
2018-11-12T11:58:33.493Z,33.87
2018-11-12T12:01:05.720Z,38.47
2018-11-12T12:03:33.720Z,35.63
2018-11-12T12:06:02.697Z,38.47
2018-11-12T12:08:30.728Z,34.70
2018-11-12T12:11:00.481Z,42.77
2018-11-12T12:13:30.135Z,36.03
2018-11-12T12:15:59.009Z,43.60
2018-11-12T12:18:27.699Z,36.80
2018-11-12T12:20:56.320Z,38.37
2018-11-12T12:23:24.763Z,36.60
2018-11-12T12:28:35.666Z,34.83
2018-11-12T12:31:07.293Z,34.13
2018-11-12T12:33:35.261Z,33.07
2018-11-12T12:36:04.156Z,34.13
2018-11-12T12:38:33.897Z,32.87
2018-11-12T12:41:11.183Z,33.90
2018-11-12T12:43:39.732Z,32.30
2018-11-12T12:46:07.745Z,36.83
2018-11-12T12:48:36.191Z,41.07
2018-11-12T12:51:05.596Z,38.63
2018-11-12T12:53:34.400Z,40.00
2018-11-12T12:56:11.946Z,37.50
2018-11-12T12:58:40.358Z,33.70
2018-11-12T13:01:09.896Z,32.50
2018-11-12T13:03:38.031Z,38.70
2018-11-12T13:06:06.267Z,31.27
2018-11-12T13:08:34.549Z,31.57
2018-11-12T13:11:13.671Z,36.43
2018-11-12T13:13:41.904Z,33.60
2018-11-12T13:16:09.911Z,34.50
2018-11-12T13:18:37.909Z,36.50
2018-11-12T13:21:06.353Z,36.90
2018-11-12T13:23:35.151Z,33.90
2018-11-12T13:26:12.724Z,34.90
2018-11-12T13:28:42.603Z,41.83
2018-11-12T13:31:10.993Z,41.73
2018-11-12T13:33:40.140Z,39.60
2018-11-12T13:36:08.327Z,37.00
2018-11-12T13:38:36.514Z,38.57
2018-11-12T13:41:13.033Z,43.70
2018-11-12T13:43:41.353Z,41.67
2018-11-12T13:46:09.617Z,42.00
2018-11-12T13:48:37.641Z,37.87
2018-11-12T13:51:06.814Z,39.90
2018-11-12T13:53:35.466Z,37.90
2018-11-12T13:56:03.505Z,41.07
2018-11-12T13:58:31.495Z,39.00
2018-11-12T14:00:59.543Z,39.27
2018-11-12T14:03:27.661Z,44.37
2018-11-12T14:05:56.208Z,47.60
2018-11-12T14:08:24.317Z,49.60
2018-11-12T14:10:55.159Z,41.60
2018-11-12T14:13:25.401Z,46.83
2018-11-12T14:15:54.484Z,48.30
2018-11-12T14:18:24.657Z,42.90
2018-11-12T14:20:53.677Z,47.60
2018-11-12T14:23:21.939Z,46.97
2018-11-12T14:25:56.514Z,46.90
2018-11-12T14:28:25.461Z,75.13
2018-11-12T14:30:53.400Z,44.80
2018-11-12T14:33:21.517Z,46.17
2018-11-12T14:35:49.465Z,37.80
2018-11-12T14:38:18.332Z,38.07
2018-11-12T14:40:47.023Z,37.87
2018-11-12T14:43:16.053Z,40.60
2018-11-12T14:45:44.077Z,37.37
2018-11-12T14:48:12.676Z,35.57
2018-11-12T14:50:40.781Z,38.17
2018-11-12T14:53:08.962Z,36.50
2018-11-12T14:55:44.318Z,36.87
2018-11-12T14:58:12.445Z,35.00
2018-11-12T15:00:40.653Z,34.57
2018-11-12T15:03:09.288Z,36.70
2018-11-12T15:05:37.348Z,36.90
2018-11-12T15:08:05.864Z,35.90
2018-11-12T15:10:41.043Z,36.03
2018-11-12T15:13:09.494Z,36.80
2018-11-12T15:15:38.326Z,36.80
2018-11-12T15:18:07.392Z,35.20
2018-11-12T15:20:35.501Z,34.07
2018-11-12T15:23:04.489Z,36.70
2018-11-12T15:28:16.314Z,51.87
2018-11-12T15:30:44.459Z,46.50
2018-11-12T15:33:12.924Z,40.67
2018-11-12T15:35:41.576Z,34.90
2018-11-12T15:38:09.909Z,38.80
2018-11-12T15:40:44.365Z,36.73
2018-11-12T15:43:13.016Z,37.07
2018-11-12T15:45:41.032Z,41.50
2018-11-12T15:48:09.009Z,43.40
2018-11-12T15:50:38.202Z,45.03
2018-11-12T15:53:08.755Z,41.60
2018-11-12T15:58:14.054Z,37.47
2018-11-12T16:00:44.585Z,39.00
2018-11-12T16:03:12.762Z,41.83
2018-11-12T16:05:41.234Z,40.20
2018-11-12T16:08:09.680Z,40.30
2018-11-12T16:10:50.939Z,41.00
2018-11-12T16:13:23.490Z,39.80
2018-11-12T16:15:51.972Z,43.57
2018-11-12T16:18:20.073Z,53.50
2018-11-12T16:20:48.929Z,45.30
2018-11-12T16:23:17.477Z,42.90
2018-11-12T16:25:53.005Z,43.13
2018-11-12T16:28:22.152Z,48.63
2018-11-12T16:30:51.221Z,46.83
2018-11-12T16:33:19.781Z,41.30
2018-11-12T16:35:47.910Z,48.13
2018-11-12T16:38:16.333Z,46.27
2018-11-12T16:40:51.360Z,48.03
2018-11-12T16:43:26.050Z,45.10
2018-11-12T16:45:54.973Z,45.43
2018-11-12T16:48:23.285Z,46.00
2018-11-12T16:50:51.904Z,52.13
2018-11-12T16:53:20.557Z,53.13
2018-11-12T16:55:55.533Z,45.57
2018-11-12T16:58:24.879Z,43.43
2018-11-12T17:00:53.879Z,54.17
2018-11-12T17:03:23.225Z,45.93
2018-11-12T17:05:51.493Z,45.17
2018-11-12T17:08:19.854Z,43.83
2018-11-12T17:13:36.133Z,48.90
2018-11-12T17:16:05.878Z,48.60
2018-11-12T17:18:36.309Z,44.07
2018-11-12T17:21:09.983Z,52.27
2018-11-12T17:23:39.519Z,46.20
2018-11-12T17:26:07.881Z,50.33
2018-11-12T17:28:43.433Z,50.40
2018-11-12T17:31:13.435Z,49.17
2018-11-12T17:33:43.120Z,48.97
2018-11-12T17:36:12.193Z,47.67
2018-11-12T17:38:41.645Z,59.23
2018-11-12T17:43:57.449Z,52.00
2018-11-12T17:46:27.250Z,46.73
2018-11-12T17:48:56.723Z,47.50
2018-11-12T17:51:28.385Z,49.40
2018-11-12T17:53:57.980Z,47.47
2018-11-12T17:56:34.288Z,53.20
2018-11-12T17:59:05.705Z,51.17
2018-11-12T18:01:36.692Z,49.10
2018-11-12T18:04:06.981Z,53.80
2018-11-12T18:06:36.404Z,53.43
2018-11-12T18:09:12.901Z,49.63
2018-11-12T18:11:42.041Z,55.10
2018-11-12T18:14:11.737Z,53.57
2018-11-12T18:16:42.465Z,54.53
2018-11-12T18:19:10.530Z,51.70
2018-11-12T18:21:51.865Z,54.90
2018-11-12T18:24:20.393Z,51.67
2018-11-12T18:26:49.081Z,50.53
2018-11-12T18:29:22.529Z,52.03
2018-11-12T18:31:54.275Z,51.20
2018-11-12T18:34:23.256Z,52.60
2018-11-12T18:36:52.535Z,49.23
2018-11-12T18:39:22.992Z,50.20
2018-11-12T18:41:55.655Z,51.70
2018-11-12T18:46:59.001Z,46.30
2018-11-12T18:49:37.471Z,48.63
2018-11-12T18:54:49.517Z,49.87
2018-11-12T18:57:18.170Z,48.13
2018-11-12T18:59:48.527Z,48.03
2018-11-12T19:02:19.935Z,50.00
2018-11-12T19:04:49.398Z,49.33
2018-11-12T19:07:22.598Z,45.37
2018-11-12T19:09:54.697Z,47.60
2018-11-12T19:12:23.461Z,53.93
2018-11-12T19:14:57.418Z,46.33
2018-11-12T19:17:31.655Z,50.23
2018-11-12T19:20:05.621Z,52.50
2018-11-12T19:22:39.942Z,52.20
2018-11-12T19:25:11.440Z,51.80
2018-11-12T19:27:40.624Z,51.27
2018-11-12T19:30:23.659Z,51.93
2018-11-12T19:32:53.041Z,48.93
2018-11-12T19:35:26.391Z,47.17
2018-11-12T19:37:55.386Z,51.10
2018-11-12T19:40:24.650Z,50.37
2018-11-12T19:42:59.528Z,47.13
2018-11-12T19:48:13.182Z,54.60
2018-11-12T19:50:42.616Z,53.30
2018-11-12T19:53:18.866Z,54.57
2018-11-12T19:58:47.637Z,55.43
2018-11-12T20:01:24.504Z,53.60
2018-11-12T20:03:53.386Z,56.83
2018-11-12T20:06:23.438Z,52.47
2018-11-12T20:08:53.736Z,47.27
2018-11-12T20:11:22.748Z,47.20
2018-11-12T20:13:53.121Z,51.20
2018-11-12T20:16:21.442Z,49.90
2018-11-12T20:18:57.037Z,45.57
2018-11-12T20:21:29.163Z,45.80
2018-11-12T20:23:57.934Z,49.27
2018-11-12T20:26:32.081Z,44.90
2018-11-12T20:29:02.120Z,44.70
2018-11-12T20:31:31.966Z,49.00
2018-11-12T20:34:05.488Z,44.20
2018-11-12T20:36:35.260Z,46.13
2018-11-12T20:39:13.694Z,47.80
2018-11-12T20:41:56.776Z,44.80
2018-11-12T20:47:06.674Z,42.83
2018-11-12T20:49:34.702Z,42.60
2018-11-12T20:52:07.331Z,44.80
2018-11-12T20:54:41.506Z,45.37
2018-11-12T20:57:10.239Z,45.77
2018-11-12T21:02:14.208Z,44.13
2018-11-12T21:04:45.812Z,50.67
2018-11-12T21:07:13.989Z,49.30
2018-11-12T21:12:22.522Z,47.90
2018-11-12T21:17:31.482Z,45.50
2018-11-12T21:20:04.250Z,46.60
2018-11-12T21:22:36.418Z,44.90
2018-11-12T21:25:10.959Z,51.23
2018-11-12T21:27:39.838Z,50.47
2018-11-12T21:30:12.564Z,48.90
2018-11-12T21:32:41.234Z,56.40
2018-11-12T21:35:10.213Z,47.10
2018-11-12T21:37:38.415Z,43.40
2018-11-12T21:40:12.812Z,47.13
2018-11-12T21:42:41.855Z,49.40
2018-11-12T21:45:12.313Z,53.90
2018-11-12T21:47:41.041Z,48.80
2018-11-12T21:50:11.739Z,46.40
2018-11-12T21:52:40.439Z,49.13
2018-11-12T21:55:10.150Z,49.67
2018-11-12T21:57:39.271Z,44.40
2018-11-12T22:00:16.346Z,48.37
2018-11-12T22:02:45.476Z,52.80
2018-11-12T22:05:14.305Z,51.33
2018-11-12T22:07:42.512Z,58.73
2018-11-12T22:10:12.702Z,48.90
2018-11-12T22:12:42.133Z,48.87
2018-11-12T22:15:11.024Z,46.90
2018-11-12T22:17:39.349Z,50.90
2018-11-12T22:20:09.071Z,44.57
2018-11-12T22:22:38.140Z,45.90
2018-11-12T22:25:08.437Z,45.03
2018-11-12T22:27:36.650Z,47.80
2018-11-12T22:30:06.186Z,43.00
2018-11-12T22:32:34.572Z,45.23
2018-11-12T22:35:04.921Z,41.50
2018-11-12T22:37:32.949Z,43.77
2018-11-12T22:40:00.854Z,46.73
2018-11-12T22:42:29.210Z,42.57
2018-11-12T22:44:57.556Z,45.23
2018-11-12T22:47:26.397Z,46.43
2018-11-12T22:49:54.342Z,41.40
2018-11-12T22:52:22.273Z,39.50
2018-11-12T22:54:50.288Z,38.50
2018-11-12T22:57:18.557Z,43.60
2018-11-12T22:59:47.265Z,38.43
2018-11-12T23:02:15.305Z,42.17
2018-11-12T23:04:43.237Z,42.27
2018-11-12T23:07:11.248Z,41.30
2018-11-12T23:09:39.202Z,41.57
2018-11-12T23:12:07.776Z,45.27
2018-11-12T23:14:35.804Z,47.13
2018-11-12T23:17:03.916Z,45.43
2018-11-12T23:19:31.942Z,44.67
2018-11-12T23:22:01.043Z,38.50
2018-11-12T23:24:28.975Z,42.90
2018-11-12T23:26:56.953Z,39.10
2018-11-12T23:29:25.025Z,42.93
2018-11-12T23:31:52.917Z,41.93
2018-11-12T23:34:21.478Z,44.03
2018-11-12T23:36:49.556Z,41.93
2018-11-12T23:39:17.744Z,40.80
2018-11-12T23:41:45.642Z,39.17
2018-11-12T23:44:13.662Z,39.00
2018-11-12T23:46:42.340Z,40.40
2018-11-12T23:49:10.857Z,41.20
2018-11-12T23:51:39.154Z,44.57
2018-11-12T23:54:07.364Z,42.40
2018-11-12T23:56:35.303Z,41.70
2018-11-12T23:59:04.624Z,39.77
